sensor_id;sensor_type;location;lat;lon;timestamp;temperature;humidity
20422;DHT22;10370;53.102;18.034;2023-05-10T00:01:55;9.80;92.80
20422;DHT22;10370;53.102;18.034;2023-05-10T00:07:22;9.80;92.90
20422;DHT22;10370;53.102;18.034;2023-05-10T00:12:49;9.70;92.90
20422;DHT22;10370;53.102;18.034;2023-05-10T00:18:16;9.60;93.20
20422;DHT22;10370;53.102;18.034;2023-05-10T00:23:41;9.60;93.50
20422;DHT22;10370;53.102;18.034;2023-05-10T00:29:06;9.50;93.70
20422;DHT22;10370;53.102;18.034;2023-05-10T00:34:29;9.50;93.80
20422;DHT22;10370;53.102;18.034;2023-05-10T00:39:55;9.50;93.90
20422;DHT22;10370;53.102;18.034;2023-05-10T00:45:21;9.40;94.00
20422;DHT22;10370;53.102;18.034;2023-05-10T00:50:49;9.40;94.10
20422;DHT22;10370;53.102;18.034;2023-05-10T00:56:15;9.30;94.30
20422;DHT22;10370;53.102;18.034;2023-05-10T01:06:56;9.30;94.60
20422;DHT22;10370;53.102;18.034;2023-05-10T01:12:19;9.20;94.80
20422;DHT22;10370;53.102;18.034;2023-05-10T01:17:44;9.20;95.10
20422;DHT22;10370;53.102;18.034;2023-05-10T01:23:31;9.10;95.30
20422;DHT22;10370;53.102;18.034;2023-05-10T01:35:12;9.10;95.60
20422;DHT22;10370;53.102;18.034;2023-05-10T01:40:54;9.10;95.70
20422;DHT22;10370;53.102;18.034;2023-05-10T01:46:29;9.00;95.90
20422;DHT22;10370;53.102;18.034;2023-05-10T01:52:03;9.00;95.90
20422;DHT22;10370;53.102;18.034;2023-05-10T01:57:33;9.00;96.10
20422;DHT22;10370;53.102;18.034;2023-05-10T02:02:57;8.90;96.20
20422;DHT22;10370;53.102;18.034;2023-05-10T02:08:22;8.90;96.20
20422;DHT22;10370;53.102;18.034;2023-05-10T02:13:50;8.80;96.60
20422;DHT22;10370;53.102;18.034;2023-05-10T02:19:16;8.80;96.80
20422;DHT22;10370;53.102;18.034;2023-05-10T02:24:44;8.70;96.90
20422;DHT22;10370;53.102;18.034;2023-05-10T02:30:10;8.60;97.20
20422;DHT22;10370;53.102;18.034;2023-05-10T02:35:32;8.60;97.20
20422;DHT22;10370;53.102;18.034;2023-05-10T02:40:58;8.60;97.40
20422;DHT22;10370;53.102;18.034;2023-05-10T02:46:22;8.60;97.50
20422;DHT22;10370;53.102;18.034;2023-05-10T02:51:57;8.50;97.60
20422;DHT22;10370;53.102;18.034;2023-05-10T02:57:27;8.50;97.80
20422;DHT22;10370;53.102;18.034;2023-05-10T03:02:52;8.50;97.70
20422;DHT22;10370;53.102;18.034;2023-05-10T03:08:16;8.60;97.70
20422;DHT22;10370;53.102;18.034;2023-05-10T03:14:02;8.50;97.80
20422;DHT22;10370;53.102;18.034;2023-05-10T03:19:37;8.60;97.80
20422;DHT22;10370;53.102;18.034;2023-05-10T03:25:06;8.60;97.70
20422;DHT22;10370;53.102;18.034;2023-05-10T03:30:31;8.70;97.70
20422;DHT22;10370;53.102;18.034;2023-05-10T03:35:59;8.80;97.40
20422;DHT22;10370;53.102;18.034;2023-05-10T03:41:24;8.90;97.30
20422;DHT22;10370;53.102;18.034;2023-05-10T03:47:06;8.90;96.90
20422;DHT22;10370;53.102;18.034;2023-05-10T03:52:50;8.90;97.10
20422;DHT22;10370;53.102;18.034;2023-05-10T03:58:26;9.00;97.00
20422;DHT22;10370;53.102;18.034;2023-05-10T04:03:49;9.10;96.80
20422;DHT22;10370;53.102;18.034;2023-05-10T04:09:26;9.20;96.50
20422;DHT22;10370;53.102;18.034;2023-05-10T04:14:51;9.40;96.40
20422;DHT22;10370;53.102;18.034;2023-05-10T04:20:18;9.60;95.70
20422;DHT22;10370;53.102;18.034;2023-05-10T04:25:44;9.90;95.10
20422;DHT22;10370;53.102;18.034;2023-05-10T04:31:09;10.10;94.50
20422;DHT22;10370;53.102;18.034;2023-05-10T04:36:32;10.50;94.00
20422;DHT22;10370;53.102;18.034;2023-05-10T04:42:00;11.20;93.00
20422;DHT22;10370;53.102;18.034;2023-05-10T04:47:27;12.70;91.40
20422;DHT22;10370;53.102;18.034;2023-05-10T04:52:53;14.40;87.70
20422;DHT22;10370;53.102;18.034;2023-05-10T04:58:18;15.50;83.50
20422;DHT22;10370;53.102;18.034;2023-05-10T05:03:42;16.00;82.20
20422;DHT22;10370;53.102;18.034;2023-05-10T05:09:05;16.50;80.30
20422;DHT22;10370;53.102;18.034;2023-05-10T05:14:29;16.70;77.80
20422;DHT22;10370;53.102;18.034;2023-05-10T05:19:52;17.30;76.50
20422;DHT22;10370;53.102;18.034;2023-05-10T05:25:13;17.70;74.50
20422;DHT22;10370;53.102;18.034;2023-05-10T05:30:37;18.30;74.40
20422;DHT22;10370;53.102;18.034;2023-05-10T05:36:05;18.80;72.70
20422;DHT22;10370;53.102;18.034;2023-05-10T05:41:31;19.30;71.80
20422;DHT22;10370;53.102;18.034;2023-05-10T05:46:55;18.80;71.80
20422;DHT22;10370;53.102;18.034;2023-05-10T05:52:16;19.70;72.00
20422;DHT22;10370;53.102;18.034;2023-05-10T05:57:39;20.40;70.20
20422;DHT22;10370;53.102;18.034;2023-05-10T06:03:02;19.50;68.00
20422;DHT22;10370;53.102;18.034;2023-05-10T06:08:24;17.30;73.30
20422;DHT22;10370;53.102;18.034;2023-05-10T06:13:49;15.50;76.20
20422;DHT22;10370;53.102;18.034;2023-05-10T06:19:13;14.80;78.90
20422;DHT22;10370;53.102;18.034;2023-05-10T06:24:37;14.50;81.00
20422;DHT22;10370;53.102;18.034;2023-05-10T06:30:02;14.30;81.80
20422;DHT22;10370;53.102;18.034;2023-05-10T06:35:32;14.10;82.10
20422;DHT22;10370;53.102;18.034;2023-05-10T06:40:54;14.20;83.30
20422;DHT22;10370;53.102;18.034;2023-05-10T06:46:15;14.20;83.20
20422;DHT22;10370;53.102;18.034;2023-05-10T06:51:36;14.10;83.10
20422;DHT22;10370;53.102;18.034;2023-05-10T06:57:01;14.30;84.50
20422;DHT22;10370;53.102;18.034;2023-05-10T07:02:37;14.50;84.50
20422;DHT22;10370;53.102;18.034;2023-05-10T07:07:58;14.40;83.80
20422;DHT22;10370;53.102;18.034;2023-05-10T07:13:20;14.60;85.00
20422;DHT22;10370;53.102;18.034;2023-05-10T07:18:43;14.60;83.90
20422;DHT22;10370;53.102;18.034;2023-05-10T07:24:07;14.80;83.30
20422;DHT22;10370;53.102;18.034;2023-05-10T07:29:33;14.90;85.00
20422;DHT22;10370;53.102;18.034;2023-05-10T07:34:58;15.10;84.00
20422;DHT22;10370;53.102;18.034;2023-05-10T07:40:22;15.20;84.10
20422;DHT22;10370;53.102;18.034;2023-05-10T07:45:43;15.10;83.10
20422;DHT22;10370;53.102;18.034;2023-05-10T07:51:04;15.50;84.20
20422;DHT22;10370;53.102;18.034;2023-05-10T07:56:32;15.70;83.80
20422;DHT22;10370;53.102;18.034;2023-05-10T08:01:55;15.90;83.50
20422;DHT22;10370;53.102;18.034;2023-05-10T08:07:20;15.70;81.30
20422;DHT22;10370;53.102;18.034;2023-05-10T08:12:41;15.90;80.80
20422;DHT22;10370;53.102;18.034;2023-05-10T08:18:06;16.00;81.10
20422;DHT22;10370;53.102;18.034;2023-05-10T08:23:29;15.90;78.70
20422;DHT22;10370;53.102;18.034;2023-05-10T08:28:52;16.20;80.70
20422;DHT22;10370;53.102;18.034;2023-05-10T08:34:14;16.30;80.20
20422;DHT22;10370;53.102;18.034;2023-05-10T08:39:36;16.70;81.50
20422;DHT22;10370;53.102;18.034;2023-05-10T08:44:59;16.70;80.20
20422;DHT22;10370;53.102;18.034;2023-05-10T08:50:23;16.50;77.80
20422;DHT22;10370;53.102;18.034;2023-05-10T08:55:47;16.80;80.40
20422;DHT22;10370;53.102;18.034;2023-05-10T09:01:11;16.80;77.50
20422;DHT22;10370;53.102;18.034;2023-05-10T09:06:35;16.70;77.10
20422;DHT22;10370;53.102;18.034;2023-05-10T09:11:59;16.80;75.60
20422;DHT22;10370;53.102;18.034;2023-05-10T09:17:22;17.00;77.60
20422;DHT22;10370;53.102;18.034;2023-05-10T09:22:44;17.10;75.90
20422;DHT22;10370;53.102;18.034;2023-05-10T09:28:09;17.30;78.70
20422;DHT22;10370;53.102;18.034;2023-05-10T09:33:46;17.40;77.70
20422;DHT22;10370;53.102;18.034;2023-05-10T09:39:08;17.50;77.80
20422;DHT22;10370;53.102;18.034;2023-05-10T09:44:32;17.50;76.70
20422;DHT22;10370;53.102;18.034;2023-05-10T09:49:53;17.60;77.30
20422;DHT22;10370;53.102;18.034;2023-05-10T09:55:23;17.60;74.70
20422;DHT22;10370;53.102;18.034;2023-05-10T10:00:45;17.60;74.80
20422;DHT22;10370;53.102;18.034;2023-05-10T10:06:19;17.40;72.50
20422;DHT22;10370;53.102;18.034;2023-05-10T10:11:49;17.50;74.50
20422;DHT22;10370;53.102;18.034;2023-05-10T10:17:10;17.50;74.30
20422;DHT22;10370;53.102;18.034;2023-05-10T10:22:32;17.60;74.80
20422;DHT22;10370;53.102;18.034;2023-05-10T10:33:36;17.60;73.70
20422;DHT22;10370;53.102;18.034;2023-05-10T10:39:01;17.70;74.30
20422;DHT22;10370;53.102;18.034;2023-05-10T10:55:20;17.80;74.40
20422;DHT22;10370;53.102;18.034;2023-05-10T11:00:45;17.60;74.60
20422;DHT22;10370;53.102;18.034;2023-05-10T11:06:06;18.10;75.70
20422;DHT22;10370;53.102;18.034;2023-05-10T11:11:29;17.90;73.10
20422;DHT22;10370;53.102;18.034;2023-05-10T11:16:50;18.20;73.40
20422;DHT22;10370;53.102;18.034;2023-05-10T11:22:13;18.20;70.70
20422;DHT22;10370;53.102;18.034;2023-05-10T11:27:37;17.90;72.40
20422;DHT22;10370;53.102;18.034;2023-05-10T11:32:59;17.90;69.70
20422;DHT22;10370;53.102;18.034;2023-05-10T11:38:20;18.30;71.20
20422;DHT22;10370;53.102;18.034;2023-05-10T11:43:42;18.40;69.60
20422;DHT22;10370;53.102;18.034;2023-05-10T11:49:03;18.20;70.20
20422;DHT22;10370;53.102;18.034;2023-05-10T11:54:33;18.10;70.10
20422;DHT22;10370;53.102;18.034;2023-05-10T12:00:00;18.20;69.70
20422;DHT22;10370;53.102;18.034;2023-05-10T12:05:32;18.30;71.70
20422;DHT22;10370;53.102;18.034;2023-05-10T12:11:07;18.50;70.10
20422;DHT22;10370;53.102;18.034;2023-05-10T12:16:31;18.50;70.90
20422;DHT22;10370;53.102;18.034;2023-05-10T12:21:56;18.90;71.50
20422;DHT22;10370;53.102;18.034;2023-05-10T12:27:21;18.70;68.00
20422;DHT22;10370;53.102;18.034;2023-05-10T12:32:46;18.70;70.00
20422;DHT22;10370;53.102;18.034;2023-05-10T12:38:34;18.60;68.60
20422;DHT22;10370;53.102;18.034;2023-05-10T12:44:00;18.70;68.60
20422;DHT22;10370;53.102;18.034;2023-05-10T12:49:21;18.50;68.60
20422;DHT22;10370;53.102;18.034;2023-05-10T12:54:45;18.30;68.60
20422;DHT22;10370;53.102;18.034;2023-05-10T13:00:09;18.70;69.80
20422;DHT22;10370;53.102;18.034;2023-05-10T13:05:32;18.70;70.40
20422;DHT22;10370;53.102;18.034;2023-05-10T13:10:57;18.70;70.60
20422;DHT22;10370;53.102;18.034;2023-05-10T13:16:18;18.70;71.90
20422;DHT22;10370;53.102;18.034;2023-05-10T13:21:43;18.60;69.40
20422;DHT22;10370;53.102;18.034;2023-05-10T13:27:08;18.70;71.80
20422;DHT22;10370;53.102;18.034;2023-05-10T13:32:34;18.80;71.40
20422;DHT22;10370;53.102;18.034;2023-05-10T13:37:58;18.60;71.50
20422;DHT22;10370;53.102;18.034;2023-05-10T13:43:24;18.60;72.30
20422;DHT22;10370;53.102;18.034;2023-05-10T13:48:48;18.90;72.00
20422;DHT22;10370;53.102;18.034;2023-05-10T13:54:11;18.70;72.10
20422;DHT22;10370;53.102;18.034;2023-05-10T13:59:34;18.70;73.20
20422;DHT22;10370;53.102;18.034;2023-05-10T14:05:00;18.90;72.50
20422;DHT22;10370;53.102;18.034;2023-05-10T14:10:23;18.90;71.70
20422;DHT22;10370;53.102;18.034;2023-05-10T14:15:47;19.00;73.70
20422;DHT22;10370;53.102;18.034;2023-05-10T14:21:10;18.80;72.50
20422;DHT22;10370;53.102;18.034;2023-05-10T14:26:35;19.00;71.20
20422;DHT22;10370;53.102;18.034;2023-05-10T14:31:59;18.80;71.60
20422;DHT22;10370;53.102;18.034;2023-05-10T14:37:22;18.80;72.40
20422;DHT22;10370;53.102;18.034;2023-05-10T14:42:50;18.90;71.30
20422;DHT22;10370;53.102;18.034;2023-05-10T14:48:15;18.90;70.40
20422;DHT22;10370;53.102;18.034;2023-05-10T14:53:38;18.90;71.70
20422;DHT22;10370;53.102;18.034;2023-05-10T14:59:03;19.00;70.00
20422;DHT22;10370;53.102;18.034;2023-05-10T15:04:25;18.90;70.30
20422;DHT22;10370;53.102;18.034;2023-05-10T15:09:50;18.70;70.10
20422;DHT22;10370;53.102;18.034;2023-05-10T15:15:19;18.70;69.60
20422;DHT22;10370;53.102;18.034;2023-05-10T15:20:45;18.60;69.40
20422;DHT22;10370;53.102;18.034;2023-05-10T15:26:12;18.70;70.10
20422;DHT22;10370;53.102;18.034;2023-05-10T15:31:33;18.70;70.60
20422;DHT22;10370;53.102;18.034;2023-05-10T15:36:59;18.70;70.80
20422;DHT22;10370;53.102;18.034;2023-05-10T15:42:25;18.80;70.30
20422;DHT22;10370;53.102;18.034;2023-05-10T15:47:50;18.80;70.60
20422;DHT22;10370;53.102;18.034;2023-05-10T15:53:15;18.60;69.00
20422;DHT22;10370;53.102;18.034;2023-05-10T15:58:40;18.60;69.90
20422;DHT22;10370;53.102;18.034;2023-05-10T16:04:07;18.60;69.10
20422;DHT22;10370;53.102;18.034;2023-05-10T16:09:38;18.50;69.00
20422;DHT22;10370;53.102;18.034;2023-05-10T16:15:04;18.50;69.20
20422;DHT22;10370;53.102;18.034;2023-05-10T16:20:29;18.30;69.00
20422;DHT22;10370;53.102;18.034;2023-05-10T16:25:53;18.20;68.20
20422;DHT22;10370;53.102;18.034;2023-05-10T16:31:17;18.30;68.80
20422;DHT22;10370;53.102;18.034;2023-05-10T16:36:40;18.30;69.60
20422;DHT22;10370;53.102;18.034;2023-05-10T16:42:02;18.30;69.00
20422;DHT22;10370;53.102;18.034;2023-05-10T16:47:25;18.20;69.60
20422;DHT22;10370;53.102;18.034;2023-05-10T16:52:48;18.10;68.70
20422;DHT22;10370;53.102;18.034;2023-05-10T16:58:11;18.00;67.20
20422;DHT22;10370;53.102;18.034;2023-05-10T17:03:34;17.90;68.60
20422;DHT22;10370;53.102;18.034;2023-05-10T17:08:59;17.80;68.00
20422;DHT22;10370;53.102;18.034;2023-05-10T17:14:29;17.70;67.80
20422;DHT22;10370;53.102;18.034;2023-05-10T17:19:53;17.60;67.90
20422;DHT22;10370;53.102;18.034;2023-05-10T17:25:15;17.60;68.00
20422;DHT22;10370;53.102;18.034;2023-05-10T17:30:40;17.50;68.50
20422;DHT22;10370;53.102;18.034;2023-05-10T17:36:04;17.40;68.90
20422;DHT22;10370;53.102;18.034;2023-05-10T17:41:27;17.30;67.80
20422;DHT22;10370;53.102;18.034;2023-05-10T17:46:52;17.20;68.90
20422;DHT22;10370;53.102;18.034;2023-05-10T17:52:21;17.00;69.00
20422;DHT22;10370;53.102;18.034;2023-05-10T17:57:49;17.00;68.90
20422;DHT22;10370;53.102;18.034;2023-05-10T18:03:14;16.80;69.00
20422;DHT22;10370;53.102;18.034;2023-05-10T18:08:40;16.70;69.00
20422;DHT22;10370;53.102;18.034;2023-05-10T18:14:06;16.60;69.20
20422;DHT22;10370;53.102;18.034;2023-05-10T18:19:33;16.50;69.40
20422;DHT22;10370;53.102;18.034;2023-05-10T18:25:02;16.30;69.40
20422;DHT22;10370;53.102;18.034;2023-05-10T18:30:28;16.20;69.50
20422;DHT22;10370;53.102;18.034;2023-05-10T18:35:53;16.00;69.80
20422;DHT22;10370;53.102;18.034;2023-05-10T18:41:15;16.00;69.60
20422;DHT22;10370;53.102;18.034;2023-05-10T18:46:41;15.90;69.60
20422;DHT22;10370;53.102;18.034;2023-05-10T18:52:07;15.80;70.20
20422;DHT22;10370;53.102;18.034;2023-05-10T18:57:31;15.70;70.20
20422;DHT22;10370;53.102;18.034;2023-05-10T19:02:54;15.50;70.70
20422;DHT22;10370;53.102;18.034;2023-05-10T19:08:28;15.50;70.60
20422;DHT22;10370;53.102;18.034;2023-05-10T19:13:53;15.30;70.70
20422;DHT22;10370;53.102;18.034;2023-05-10T19:19:16;15.20;71.10
20422;DHT22;10370;53.102;18.034;2023-05-10T19:24:45;15.10;71.20
20422;DHT22;10370;53.102;18.034;2023-05-10T19:30:10;15.10;71.50
20422;DHT22;10370;53.102;18.034;2023-05-10T19:35:39;15.00;71.90
20422;DHT22;10370;53.102;18.034;2023-05-10T19:41:04;14.90;71.70
20422;DHT22;10370;53.102;18.034;2023-05-10T19:46:27;14.80;72.30
20422;DHT22;10370;53.102;18.034;2023-05-10T19:51:49;14.60;72.80
20422;DHT22;10370;53.102;18.034;2023-05-10T19:57:18;14.50;73.40
20422;DHT22;10370;53.102;18.034;2023-05-10T20:02:45;14.40;75.00
20422;DHT22;10370;53.102;18.034;2023-05-10T20:08:08;14.30;75.30
20422;DHT22;10370;53.102;18.034;2023-05-10T20:13:35;14.20;75.70
20422;DHT22;10370;53.102;18.034;2023-05-10T20:18:57;14.10;76.30
20422;DHT22;10370;53.102;18.034;2023-05-10T20:24:19;14.10;76.80
20422;DHT22;10370;53.102;18.034;2023-05-10T20:29:45;14.00;77.00
20422;DHT22;10370;53.102;18.034;2023-05-10T20:35:12;13.90;77.30
20422;DHT22;10370;53.102;18.034;2023-05-10T20:40:34;13.80;78.20
20422;DHT22;10370;53.102;18.034;2023-05-10T20:45:59;13.80;77.30
20422;DHT22;10370;53.102;18.034;2023-05-10T20:51:29;13.80;77.10
20422;DHT22;10370;53.102;18.034;2023-05-10T20:56:56;13.90;76.80
20422;DHT22;10370;53.102;18.034;2023-05-10T21:02:22;13.90;76.40
20422;DHT22;10370;53.102;18.034;2023-05-10T21:07:48;13.80;76.70
20422;DHT22;10370;53.102;18.034;2023-05-10T21:13:17;13.70;76.70
20422;DHT22;10370;53.102;18.034;2023-05-10T21:18:44;13.60;76.60
20422;DHT22;10370;53.102;18.034;2023-05-10T21:24:11;13.60;76.60
20422;DHT22;10370;53.102;18.034;2023-05-10T21:29:36;13.50;76.70
20422;DHT22;10370;53.102;18.034;2023-05-10T21:35:02;13.60;76.50
20422;DHT22;10370;53.102;18.034;2023-05-10T21:40:25;13.40;76.90
20422;DHT22;10370;53.102;18.034;2023-05-10T21:45:50;13.20;77.10
20422;DHT22;10370;53.102;18.034;2023-05-10T21:51:16;13.10;77.20
20422;DHT22;10370;53.102;18.034;2023-05-10T21:56:44;13.10;77.50
20422;DHT22;10370;53.102;18.034;2023-05-10T22:02:10;13.10;77.20
20422;DHT22;10370;53.102;18.034;2023-05-10T22:07:35;12.90;77.40
20422;DHT22;10370;53.102;18.034;2023-05-10T22:12:58;12.90;77.70
20422;DHT22;10370;53.102;18.034;2023-05-10T22:18:24;12.90;77.50
20422;DHT22;10370;53.102;18.034;2023-05-10T22:23:50;12.70;77.70
20422;DHT22;10370;53.102;18.034;2023-05-10T22:29:17;12.70;77.60
20422;DHT22;10370;53.102;18.034;2023-05-10T22:34:39;12.60;78.00
20422;DHT22;10370;53.102;18.034;2023-05-10T22:40:05;12.60;78.00
20422;DHT22;10370;53.102;18.034;2023-05-10T22:45:33;12.50;78.20
20422;DHT22;10370;53.102;18.034;2023-05-10T22:50:56;12.40;78.40
20422;DHT22;10370;53.102;18.034;2023-05-10T22:56:21;12.40;78.60
20422;DHT22;10370;53.102;18.034;2023-05-10T23:01:46;12.30;78.80
20422;DHT22;10370;53.102;18.034;2023-05-10T23:07:12;12.30;78.90
20422;DHT22;10370;53.102;18.034;2023-05-10T23:12:38;12.20;79.20
20422;DHT22;10370;53.102;18.034;2023-05-10T23:18:03;12.10;79.50
20422;DHT22;10370;53.102;18.034;2023-05-10T23:23:29;12.10;79.80
20422;DHT22;10370;53.102;18.034;2023-05-10T23:28:56;12.00;80.00
20422;DHT22;10370;53.102;18.034;2023-05-10T23:34:23;12.00;80.00
20422;DHT22;10370;53.102;18.034;2023-05-10T23:39:51;11.90;80.20
20422;DHT22;10370;53.102;18.034;2023-05-10T23:45:18;11.80;80.50
20422;DHT22;10370;53.102;18.034;2023-05-10T23:50:43;11.70;80.80
20422;DHT22;10370;53.102;18.034;2023-05-10T23:56:06;11.70;80.90
